CheckWX is a tool to help pilots better visualize weather data.  It is not intended as a substitute for an official pre-flight weather briefing.

03:03:42 UTC

WSSL TAF
Seletar Airport
Seletar, Singapore
TAF WSSL 072300Z 0800/0906 03014KT 9999 FEW015 SCT020 TEMPO 0800/0803 03015G25KT 3000 -TSRA FEW012CB BKN015 TEMPO 0816/0820 03015G25KT 2000 +SHRA SCT010TCU BKN015 TEMPO 0820/0900 03015G25KT 4500 SHRA SCT008TCU BKN012

Dec-8@
00:00 UTC

Dec-8 @ 00:00 UTC

Dec-9@
06:00 UTC

Dec-9 @ 06:00 UTC

TAF WSSL 072300Z 0800/0906 03014KT 9999 FEW015 SCT020
Wind
  • 030° at 14 KTS
Cloud Levels
  • Few at 1,500' AGL
  • Scattered at 2,000' AGL

Dec-8@
00:00 UTC

Dec-8 @ 00:00 UTC

Dec-8@
03:00 UTC

Dec-8 @ 03:00 UTC

TEMPO 0800/0803 03015G25KT 3000 -TSRA FEW012CB BKN015

Expired

Wind
  • 030° at 15 KTS
  • {Gusting to 25 KTS
Conditions
Light Thunderstorm, Light Rain
Cloud Levels
  • Few at 1,200' AGL
  • Broken at 1,500' AGL

Dec-8@
16:00 UTC

Dec-8 @ 16:00 UTC

Dec-8@
20:00 UTC

Dec-8 @ 20:00 UTC

TEMPO 0816/0820 03015G25KT 2000 +SHRA SCT010TCU BKN015

Temporary

Temporary Changes expected for less than half the time period

Wind
  • 030° at 15 KTS
  • {Gusting to 25 KTS
Conditions
Heavy Rain
Cloud Levels
  • Scattered at 1,000' AGL
  • Broken at 1,500' AGL

Dec-8@
20:00 UTC

Dec-8 @ 20:00 UTC

Dec-9@
00:00 UTC

Dec-9 @ 00:00 UTC

TEMPO 0820/0900 03015G25KT 4500 SHRA SCT008TCU BKN012

Temporary

Temporary Changes expected for less than half the time period

Wind
  • 030° at 15 KTS
  • {Gusting to 25 KTS
Conditions
Rain
Cloud Levels
  • Scattered at 800' AGL
  • Broken at 1,200' AGL